createdAt,value
2018-07-11T00:01:22.284Z,14.10
2018-07-11T00:03:54.245Z,14.00
2018-07-11T00:06:26.124Z,14.20
2018-07-11T00:08:56.703Z,14.40
2018-07-11T00:11:27.368Z,14.30
2018-07-11T00:13:58.093Z,14.20
2018-07-11T00:16:28.963Z,14.10
2018-07-11T00:18:59.567Z,14.30
2018-07-11T00:21:30.069Z,14.30
2018-07-11T00:24:01.131Z,14.20
2018-07-11T00:26:31.779Z,14.20
2018-07-11T00:29:02.415Z,14.20
2018-07-11T00:31:33.144Z,14.30
2018-07-11T00:34:03.864Z,14.20
2018-07-11T00:36:34.617Z,14.20
2018-07-11T00:39:06.056Z,14.10
2018-07-11T00:41:36.783Z,14.10
2018-07-11T00:46:37.802Z,14.00
2018-07-11T00:49:08.707Z,14.00
2018-07-11T00:51:39.365Z,14.00
2018-07-11T00:54:10.165Z,14.10
2018-07-11T00:56:41.818Z,14.30
2018-07-11T00:59:27.101Z,14.30
2018-07-11T01:02:04.237Z,14.50
2018-07-11T01:04:35.110Z,14.50
2018-07-11T01:07:07.288Z,14.30
2018-07-11T01:09:46.454Z,14.20
2018-07-11T01:12:17.301Z,14.00
2018-07-11T01:14:48.730Z,13.80
2018-07-11T01:17:24.686Z,13.70
2018-07-11T01:19:55.322Z,13.60
2018-07-11T01:22:25.898Z,13.50
2018-07-11T01:24:56.419Z,13.50
2018-07-11T01:27:27.131Z,13.50
2018-07-11T01:29:57.697Z,13.50
2018-07-11T01:32:28.414Z,13.40
2018-07-11T01:37:29.388Z,13.20
2018-07-11T01:39:59.920Z,13.20
2018-07-11T01:42:30.552Z,13.10
2018-07-11T01:45:01.177Z,13.10
2018-07-11T01:47:31.918Z,13.00
2018-07-11T01:50:02.549Z,13.00
2018-07-11T01:52:50.044Z,13.00
2018-07-11T01:55:20.748Z,13.00
2018-07-11T01:57:53.471Z,12.90
2018-07-11T02:00:24.099Z,12.90
2018-07-11T02:05:26.578Z,13.00
2018-07-11T02:07:57.290Z,13.00
2018-07-11T02:10:28.405Z,13.10
2018-07-11T02:13:00.104Z,13.10
2018-07-11T02:15:30.954Z,13.20
2018-07-11T02:18:03.421Z,13.20
2018-07-11T02:20:34.016Z,13.30
2018-07-11T02:23:04.731Z,13.40
2018-07-11T02:25:35.342Z,13.50
2018-07-11T02:28:07.074Z,13.50
2018-07-11T02:30:37.955Z,13.60
2018-07-11T02:33:08.888Z,13.60
2018-07-11T02:35:39.618Z,13.60
2018-07-11T02:38:10.240Z,13.60
2018-07-11T02:43:12.183Z,13.70
2018-07-11T02:45:42.837Z,13.80
2018-07-11T02:48:13.525Z,13.90
2018-07-11T02:50:44.240Z,13.90
2018-07-11T02:53:21.828Z,13.90
2018-07-11T02:55:53.341Z,14.00
2018-07-11T02:58:24.026Z,14.00
2018-07-11T03:00:54.751Z,14.00
2018-07-11T03:03:25.400Z,14.00
2018-07-11T03:05:56.242Z,14.00
2018-07-11T03:08:35.857Z,14.00
2018-07-11T03:11:07.153Z,13.90
2018-07-11T03:13:37.925Z,13.90
2018-07-11T03:16:08.662Z,14.00
2018-07-11T03:18:39.598Z,14.10
2018-07-11T03:21:10.169Z,14.20
2018-07-11T03:23:41.391Z,14.20
2018-07-11T03:26:12.016Z,14.30
2018-07-11T03:28:42.621Z,14.30
2018-07-11T03:31:13.149Z,14.20
2018-07-11T03:33:43.884Z,14.30
2018-07-11T03:36:15.167Z,14.40
2018-07-11T03:38:45.742Z,14.30
2018-07-11T03:41:16.340Z,14.40
2018-07-11T03:43:47.053Z,14.40
2018-07-11T03:46:17.686Z,14.30
2018-07-11T03:48:48.335Z,14.30
2018-07-11T03:51:18.865Z,14.30
2018-07-11T03:53:49.771Z,14.30
2018-07-11T03:56:20.210Z,14.30
2018-07-11T03:58:51.194Z,14.30
2018-07-11T04:01:21.818Z,14.30
2018-07-11T04:03:52.451Z,14.20
2018-07-11T04:06:22.932Z,14.20
2018-07-11T04:08:53.659Z,14.20
2018-07-11T04:11:24.147Z,14.20
2018-07-11T04:13:54.743Z,14.20
2018-07-11T04:16:25.373Z,14.20
2018-07-11T04:18:56.812Z,14.10
2018-07-11T04:21:27.505Z,14.10
2018-07-11T04:23:58.294Z,14.10
2018-07-11T04:26:29.055Z,14.10
2018-07-11T04:28:59.783Z,14.20
2018-07-11T04:31:30.412Z,14.20
2018-07-11T04:34:01.079Z,14.20
2018-07-11T04:36:31.626Z,14.30
2018-07-11T04:39:02.281Z,14.30
2018-07-11T04:41:32.872Z,14.20
2018-07-11T04:44:03.400Z,14.30
2018-07-11T04:46:34.223Z,14.20
2018-07-11T04:49:04.828Z,14.30
2018-07-11T04:51:35.747Z,14.40
2018-07-11T04:54:06.332Z,14.50
2018-07-11T04:56:37.046Z,14.50
2018-07-11T04:59:07.650Z,14.60
2018-07-11T05:01:38.254Z,14.80
2018-07-11T05:04:08.927Z,15.00
2018-07-11T05:06:39.539Z,15.30
2018-07-11T05:09:11.203Z,15.40
2018-07-11T05:11:41.844Z,15.50
2018-07-11T05:14:12.768Z,15.50
2018-07-11T05:16:43.829Z,15.70
2018-07-11T05:19:14.338Z,15.90
2018-07-11T05:21:44.978Z,16.10
2018-07-11T05:24:15.918Z,16.00
2018-07-11T05:26:46.492Z,16.10
2018-07-11T05:29:17.288Z,16.30
2018-07-11T05:31:48.004Z,16.40
2018-07-11T05:34:18.643Z,16.50
2018-07-11T05:36:49.282Z,16.40
2018-07-11T05:39:20.040Z,16.40
2018-07-11T05:41:50.846Z,16.90
2018-07-11T05:46:56.213Z,17.10
2018-07-11T05:49:28.802Z,18.70
2018-07-11T05:51:59.775Z,20.80
2018-07-11T05:54:30.678Z,22.50
2018-07-11T05:57:01.468Z,24.20
2018-07-11T05:59:34.916Z,25.60
2018-07-11T06:02:05.552Z,26.80
2018-07-11T06:04:36.321Z,27.70
2018-07-11T06:07:07.247Z,27.80
2018-07-11T06:09:37.848Z,28.00
2018-07-11T06:12:08.666Z,28.40
2018-07-11T06:14:39.381Z,28.60
2018-07-11T06:17:10.123Z,28.90
2018-07-11T06:19:40.648Z,29.60
2018-07-11T06:22:11.285Z,30.20
2018-07-11T06:24:41.886Z,29.60
2018-07-11T06:27:12.469Z,30.00
2018-07-11T06:29:43.156Z,29.80
2018-07-11T06:32:13.931Z,30.10
2018-07-11T06:34:44.650Z,30.10
2018-07-11T06:37:15.263Z,30.10
2018-07-11T06:39:45.978Z,30.90
2018-07-11T06:42:16.535Z,31.00
2018-07-11T06:44:47.431Z,30.50
2018-07-11T06:47:18.100Z,28.70
2018-07-11T06:52:19.065Z,26.60
2018-07-11T06:54:49.680Z,26.50
2018-07-11T06:57:20.485Z,28.10
2018-07-11T06:59:57.719Z,29.60
2018-07-11T07:02:28.264Z,28.60
2018-07-11T07:04:59.438Z,27.10
2018-07-11T07:07:29.918Z,25.80
2018-07-11T07:10:00.612Z,24.80
2018-07-11T07:12:31.072Z,24.20
2018-07-11T07:15:01.654Z,23.60
2018-07-11T07:17:32.200Z,23.10
2018-07-11T07:20:02.794Z,23.50
2018-07-11T07:22:33.910Z,23.20
2018-07-11T07:25:04.420Z,22.70
2018-07-11T07:27:34.869Z,22.10
2018-07-11T07:30:05.670Z,21.00
2018-07-11T07:32:36.144Z,20.70
2018-07-11T07:35:06.748Z,20.70
2018-07-11T07:37:37.329Z,20.60
2018-07-11T07:40:08.225Z,20.60
2018-07-11T07:42:38.761Z,20.50
2018-07-11T07:45:09.474Z,20.20
2018-07-11T07:47:46.974Z,20.40
2018-07-11T07:50:18.130Z,20.60
2018-07-11T07:52:48.845Z,20.70
2018-07-11T07:55:19.545Z,21.30
2018-07-11T07:57:50.171Z,21.10
2018-07-11T08:00:21.051Z,20.50
2018-07-11T08:02:51.896Z,20.10
2018-07-11T08:05:22.496Z,20.10
2018-07-11T08:07:53.346Z,21.40
2018-07-11T08:10:24.030Z,22.60
2018-07-11T08:12:54.616Z,22.90
2018-07-11T08:15:25.189Z,23.10
2018-07-11T08:17:55.974Z,22.70
2018-07-11T08:20:26.684Z,22.40
2018-07-11T08:23:24.123Z,21.90
2018-07-11T08:26:11.586Z,21.40
2018-07-11T08:32:03.949Z,21.30
2018-07-11T08:34:58.540Z,21.10
2018-07-11T08:37:58.114Z,21.40
2018-07-11T08:41:52.295Z,21.50
2018-07-11T08:46:46.497Z,21.40
2018-07-11T08:52:25.287Z,21.40
2018-07-11T08:55:20.026Z,22.00
2018-07-11T09:02:03.227Z,22.90
2018-07-11T09:05:02.705Z,23.30
2018-07-11T09:10:11.908Z,24.30
2018-07-11T09:15:03.934Z,26.70
2018-07-11T09:19:11.366Z,30.10
2018-07-11T09:24:38.596Z,28.80
2018-07-11T09:27:09.665Z,26.60
2018-07-11T09:29:41.264Z,23.70
2018-07-11T09:32:12.728Z,23.30
2018-07-11T09:34:44.091Z,22.70
2018-07-11T09:37:14.643Z,22.40
2018-07-11T09:39:45.408Z,22.70
2018-07-11T09:44:46.265Z,23.20
2018-07-11T09:47:22.722Z,23.20
2018-07-11T09:49:53.223Z,22.70
2018-07-11T09:52:23.815Z,22.20
2018-07-11T09:57:26.331Z,21.80
2018-07-11T09:59:57.445Z,21.90
2018-07-11T10:02:28.249Z,21.70
2018-07-11T10:04:59.056Z,21.90
2018-07-11T10:07:29.760Z,23.20
2018-07-11T10:10:00.242Z,24.80
2018-07-11T10:12:30.901Z,25.70
2018-07-11T10:17:32.286Z,27.90
2018-07-11T10:20:02.814Z,27.00
2018-07-11T10:22:33.524Z,26.00
2018-07-11T10:25:04.284Z,25.50
2018-07-11T10:27:34.789Z,24.40
2018-07-11T10:30:05.381Z,24.20
2018-07-11T10:32:35.984Z,23.80
2018-07-11T10:35:07.201Z,23.20
2018-07-11T10:40:08.055Z,23.90
2018-07-11T10:42:38.805Z,24.40
2018-07-11T10:45:09.240Z,24.50
2018-07-11T10:47:39.878Z,24.50
2018-07-11T10:50:10.389Z,24.80
2018-07-11T10:52:41.211Z,26.70
2018-07-11T10:55:12.398Z,28.30
2018-07-11T10:57:42.996Z,28.50
2018-07-11T11:00:35.964Z,28.10
2018-07-11T11:02:44.534Z,27.20
2018-07-11T11:05:14.961Z,28.70
2018-07-11T11:07:45.749Z,28.60
2018-07-11T11:10:16.440Z,28.70
2018-07-11T11:12:47.315Z,28.40
2018-07-11T11:15:18.089Z,27.90
2018-07-11T11:17:48.781Z,27.60
2018-07-11T11:20:19.299Z,27.20
2018-07-11T11:22:50.016Z,26.80
2018-07-11T11:30:21.254Z,25.90
2018-07-11T11:32:52.035Z,26.00
2018-07-11T11:37:53.047Z,25.30
2018-07-11T11:40:23.800Z,24.90
2018-07-11T11:42:54.710Z,24.90
2018-07-11T11:45:25.582Z,24.50
2018-07-11T11:47:59.255Z,24.20
2018-07-11T11:50:30.411Z,23.60
2018-07-11T11:53:01.840Z,23.20
2018-07-11T11:55:36.947Z,22.80
2018-07-11T11:58:07.632Z,22.70
2018-07-11T12:00:38.416Z,22.60
2018-07-11T12:03:09.182Z,22.40
2018-07-11T12:05:42.685Z,22.50
2018-07-11T12:08:13.339Z,22.50
2018-07-11T12:10:43.990Z,22.20
2018-07-11T12:13:14.820Z,22.10
2018-07-11T12:15:45.508Z,22.20
2018-07-11T12:18:16.184Z,22.20
2018-07-11T12:20:46.771Z,22.10
2018-07-11T12:23:17.541Z,22.00
2018-07-11T12:26:00.176Z,21.70
2018-07-11T12:28:31.530Z,21.60
2018-07-11T12:31:02.482Z,21.50
2018-07-11T12:33:33.292Z,21.60
2018-07-11T12:36:04.168Z,21.70
2018-07-11T12:38:35.259Z,22.00
2018-07-11T12:41:06.097Z,22.50
2018-07-11T12:43:36.962Z,23.20
2018-07-11T12:46:07.677Z,23.80
2018-07-11T12:48:43.479Z,24.40
2018-07-11T12:51:15.913Z,24.80
2018-07-11T12:53:46.544Z,24.90
2018-07-11T12:56:17.374Z,24.90
2018-07-11T13:01:18.359Z,24.20
2018-07-11T13:03:49.113Z,24.10
2018-07-11T13:06:19.733Z,23.60
2018-07-11T13:08:50.352Z,23.50
2018-07-11T13:11:21.910Z,23.00
2018-07-11T13:13:53.040Z,22.90
2018-07-11T13:16:23.553Z,22.60
2018-07-11T13:18:54.214Z,22.50
2018-07-11T13:21:25.394Z,22.30
2018-07-11T13:23:56.112Z,22.30
2018-07-11T13:26:29.852Z,22.20
2018-07-11T13:29:00.496Z,22.10
2018-07-11T13:31:31.282Z,21.90
2018-07-11T13:34:01.977Z,21.80
2018-07-11T13:36:32.541Z,21.80
2018-07-11T13:39:05.014Z,21.80
2018-07-11T13:41:35.650Z,21.90
2018-07-11T13:44:06.955Z,21.90
2018-07-11T13:46:37.576Z,21.80
2018-07-11T13:49:08.759Z,21.90
2018-07-11T13:51:39.494Z,21.90
2018-07-11T13:54:10.549Z,21.80
2018-07-11T13:56:41.356Z,21.80
2018-07-11T13:59:12.192Z,21.80
2018-07-11T14:01:43.026Z,21.50
2018-07-11T14:04:13.666Z,21.40
2018-07-11T14:06:44.523Z,21.20
2018-07-11T14:09:15.207Z,21.20
2018-07-11T14:11:45.981Z,21.30
2018-07-11T14:14:16.709Z,21.30
2018-07-11T14:16:47.282Z,21.20
2018-07-11T14:19:17.816Z,21.00
2018-07-11T14:21:48.495Z,20.90
2018-07-11T14:26:49.945Z,20.90
2018-07-11T14:29:23.302Z,20.90
2018-07-11T14:31:54.355Z,21.10
2018-07-11T14:34:25.044Z,21.20
2018-07-11T14:36:55.765Z,21.30
2018-07-11T14:44:27.360Z,21.50
2018-07-11T14:46:58.090Z,21.70
2018-07-11T14:49:28.838Z,21.60
2018-07-11T14:51:59.513Z,21.80
2018-07-11T14:54:30.095Z,21.90
2018-07-11T14:57:01.240Z,21.90
2018-07-11T14:59:31.896Z,22.00
2018-07-11T15:02:08.917Z,22.10
2018-07-11T15:04:39.908Z,22.00
2018-07-11T15:07:10.542Z,22.10
2018-07-11T15:09:41.290Z,22.20
2018-07-11T15:12:11.891Z,22.20
2018-07-11T15:14:42.575Z,22.40
2018-07-11T15:17:13.379Z,22.50
2018-07-11T15:19:44.110Z,22.50
2018-07-11T15:22:14.914Z,22.60
2018-07-11T15:27:16.236Z,22.70
2018-07-11T15:29:47.053Z,22.60
2018-07-11T15:32:17.820Z,22.50
2018-07-11T15:34:48.611Z,22.50
2018-07-11T15:37:19.676Z,22.70
2018-07-11T15:39:51.263Z,22.70
2018-07-11T15:42:22.579Z,22.80
2018-07-11T15:44:53.896Z,22.70
2018-07-11T15:47:25.304Z,22.70
2018-07-11T15:49:56.270Z,22.70
2018-07-11T15:52:27.057Z,22.70
2018-07-11T15:54:59.657Z,22.80
2018-07-11T15:57:43.193Z,22.90
2018-07-11T16:00:14.692Z,23.00
2018-07-11T16:02:47.234Z,22.80
2018-07-11T16:05:22.851Z,22.70
2018-07-11T16:07:54.768Z,22.60
2018-07-11T16:10:39.109Z,22.60
2018-07-11T16:13:09.881Z,22.60
2018-07-11T16:15:40.740Z,22.50
2018-07-11T16:18:11.340Z,22.40
2018-07-11T16:20:42.014Z,22.40
2018-07-11T16:23:12.792Z,22.50
2018-07-11T16:25:44.614Z,22.50
2018-07-11T16:28:15.720Z,22.50
2018-07-11T16:30:46.684Z,22.50
2018-07-11T16:33:17.386Z,22.60
2018-07-11T16:35:48.307Z,22.60
2018-07-11T16:38:19.033Z,22.60
2018-07-11T16:43:20.103Z,22.50
2018-07-11T16:45:50.894Z,22.50
2018-07-11T16:48:22.637Z,22.50
2018-07-11T16:50:53.147Z,22.40
2018-07-11T16:53:24.115Z,22.20
2018-07-11T16:55:54.878Z,22.00
2018-07-11T16:58:30.105Z,21.90
2018-07-11T17:01:01.777Z,21.70
2018-07-11T17:03:35.569Z,21.50
2018-07-11T17:08:55.079Z,21.30
2018-07-11T17:11:28.273Z,21.30
2018-07-11T17:14:01.767Z,21.10
2018-07-11T17:16:37.621Z,21.10
2018-07-11T17:19:13.224Z,21.00
2018-07-11T17:21:48.522Z,20.90
2018-07-11T17:24:20.806Z,20.90
2018-07-11T17:26:56.708Z,20.70
2018-07-11T17:29:30.384Z,20.60
2018-07-11T17:32:06.924Z,20.50
2018-07-11T17:34:38.477Z,20.40
2018-07-11T17:37:10.514Z,20.40
2018-07-11T17:39:53.246Z,20.20
2018-07-11T17:42:26.605Z,20.20
2018-07-11T17:45:13.204Z,20.30
2018-07-11T17:50:01.181Z,20.40
2018-07-11T17:52:54.913Z,20.40
2018-07-11T17:55:35.817Z,20.40
2018-07-11T17:58:08.664Z,20.40
2018-07-11T18:01:02.584Z,20.30
2018-07-11T18:04:46.008Z,20.40
2018-07-11T18:07:28.805Z,20.50
2018-07-11T18:10:08.711Z,20.70
2018-07-11T18:12:58.820Z,20.80
2018-07-11T18:15:44.339Z,21.00
2018-07-11T18:18:35.071Z,21.00
2018-07-11T18:27:11.812Z,21.00
2018-07-11T18:30:06.921Z,20.90
2018-07-11T18:32:50.007Z,20.60
2018-07-11T18:35:35.162Z,20.50
2018-07-11T18:38:22.531Z,20.50
2018-07-11T18:41:17.042Z,20.40
2018-07-11T18:45:12.172Z,20.40
2018-07-11T18:48:56.695Z,20.40
2018-07-11T18:51:44.197Z,20.20
2018-07-11T18:54:38.216Z,20.10
2018-07-11T18:57:35.456Z,20.00
2018-07-11T19:00:18.023Z,19.90
2018-07-11T19:04:06.211Z,19.70
2018-07-11T19:06:50.818Z,19.70
2018-07-11T19:09:40.924Z,19.60
2018-07-11T19:12:33.880Z,19.50
2018-07-11T19:15:14.587Z,19.40
2018-07-11T19:18:24.090Z,19.40
2018-07-11T19:21:10.506Z,19.30
2018-07-11T19:24:56.262Z,19.20
2018-07-11T19:27:33.600Z,19.10
2018-07-11T19:30:12.965Z,19.20
2018-07-11T19:33:08.026Z,19.20
2018-07-11T19:36:49.328Z,19.20
2018-07-11T19:40:36.311Z,19.20
2018-07-11T19:45:26.240Z,18.90
2018-07-11T19:55:00.814Z,18.50
2018-07-11T19:57:31.582Z,18.40
2018-07-11T20:00:02.340Z,18.40
2018-07-11T20:02:33.872Z,18.30
2018-07-11T20:05:04.621Z,18.40
2018-07-11T20:07:35.189Z,18.50
2018-07-11T20:10:05.929Z,18.50
2018-07-11T20:15:06.825Z,18.50
2018-07-11T20:17:37.556Z,18.40
2018-07-11T20:20:08.609Z,18.20
2018-07-11T20:22:39.233Z,18.20
2018-07-11T20:25:09.810Z,18.20
2018-07-11T20:30:10.521Z,18.20
2018-07-11T20:32:41.241Z,18.20
2018-07-11T20:35:11.993Z,18.20
2018-07-11T20:37:42.786Z,18.20
2018-07-11T20:40:13.754Z,18.20
2018-07-11T20:42:44.500Z,18.20
2018-07-11T20:45:15.116Z,18.20
2018-07-11T20:47:46.077Z,18.10
2018-07-11T20:50:17.541Z,18.10
2018-07-11T20:52:48.208Z,18.10
2018-07-11T20:55:19.090Z,18.10
2018-07-11T20:57:50.628Z,18.10
2018-07-11T21:01:39.820Z,18.00
2018-07-11T21:06:37.315Z,18.00
2018-07-11T21:10:21.034Z,18.00
2018-07-11T21:13:09.495Z,18.00
2018-07-11T21:17:02.689Z,17.90
2018-07-11T21:19:33.469Z,17.90
2018-07-11T21:22:04.085Z,17.90
2018-07-11T21:24:34.901Z,17.90
2018-07-11T21:27:05.782Z,17.90
2018-07-11T21:32:06.975Z,18.10
2018-07-11T21:34:37.860Z,18.10
2018-07-11T21:37:08.376Z,18.10
2018-07-11T21:44:39.482Z,18.10
2018-07-11T21:47:10.222Z,18.10
2018-07-11T21:49:41.471Z,18.10
2018-07-11T21:52:12.079Z,18.10
2018-07-11T21:54:42.993Z,18.10
2018-07-11T21:57:14.300Z,18.10
2018-07-11T21:59:45.276Z,18.20
2018-07-11T22:02:17.151Z,18.10
2018-07-11T22:07:18.061Z,18.00
2018-07-11T22:09:48.956Z,18.00
2018-07-11T22:14:49.618Z,18.00
2018-07-11T22:22:31.982Z,18.10
2018-07-11T22:25:00.405Z,18.10
2018-07-11T22:27:28.847Z,18.00
2018-07-11T22:29:57.274Z,18.00
2018-07-11T22:32:25.728Z,18.10
2018-07-11T22:34:54.167Z,18.10
2018-07-11T22:37:22.623Z,18.10
2018-07-11T22:39:51.183Z,18.20
2018-07-11T22:42:19.623Z,18.20
2018-07-11T22:44:48.036Z,18.20
2018-07-11T22:47:16.474Z,18.20
2018-07-11T22:49:50.244Z,18.20
2018-07-11T22:52:18.646Z,18.10
2018-07-11T22:54:47.114Z,18.10
2018-07-11T22:57:15.570Z,18.00
2018-07-11T22:59:44.009Z,18.10
2018-07-11T23:02:12.587Z,18.10
2018-07-11T23:04:41.282Z,18.10
2018-07-11T23:07:09.738Z,18.10
2018-07-11T23:09:38.187Z,18.20
2018-07-11T23:12:06.949Z,18.10
2018-07-11T23:14:35.469Z,18.00
2018-07-11T23:17:04.292Z,18.00
2018-07-11T23:19:32.724Z,18.00
2018-07-11T23:22:01.184Z,18.00
2018-07-11T23:24:29.619Z,17.90
2018-07-11T23:26:58.054Z,18.00
2018-07-11T23:29:26.524Z,18.00
2018-07-11T23:31:54.984Z,18.10
2018-07-11T23:34:23.425Z,18.00
2018-07-11T23:39:20.477Z,17.90
2018-07-11T23:41:48.914Z,18.00
2018-07-11T23:44:17.602Z,17.90
2018-07-11T23:46:46.176Z,17.80
2018-07-11T23:49:14.674Z,17.70
2018-07-11T23:51:43.092Z,17.70
2018-07-11T23:54:11.559Z,17.70
2018-07-11T23:56:39.989Z,17.60
2018-07-11T23:59:08.427Z,17.80
